sensor_id;sensor_type;location;lat;lon;timestamp;temperature;humidity
13610;DHT22;6876;50.788;4.940;2022-11-20T00:00:43;3.60;99.90
13610;DHT22;6876;50.788;4.940;2022-11-20T00:03:30;3.50;99.90
13610;DHT22;6876;50.788;4.940;2022-11-20T00:06:19;3.50;99.90
13610;DHT22;6876;50.788;4.940;2022-11-20T00:09:10;3.50;99.90
13610;DHT22;6876;50.788;4.940;2022-11-20T00:11:57;3.50;99.90
13610;DHT22;6876;50.788;4.940;2022-11-20T00:14:44;3.60;99.90
13610;DHT22;6876;50.788;4.940;2022-11-20T00:17:31;3.70;99.90
13610;DHT22;6876;50.788;4.940;2022-11-20T00:20:18;3.70;99.90
13610;DHT22;6876;50.788;4.940;2022-11-20T00:23:06;3.60;99.90
13610;DHT22;6876;50.788;4.940;2022-11-20T00:25:54;3.60;99.90
13610;DHT22;6876;50.788;4.940;2022-11-20T00:28:43;3.50;99.90
13610;DHT22;6876;50.788;4.940;2022-11-20T00:31:30;3.50;99.90
13610;DHT22;6876;50.788;4.940;2022-11-20T00:34:18;3.50;99.90
13610;DHT22;6876;50.788;4.940;2022-11-20T00:37:06;3.60;99.90
13610;DHT22;6876;50.788;4.940;2022-11-20T00:39:53;3.50;99.90
13610;DHT22;6876;50.788;4.940;2022-11-20T00:42:41;3.40;99.90
13610;DHT22;6876;50.788;4.940;2022-11-20T00:45:29;3.40;99.90
13610;DHT22;6876;50.788;4.940;2022-11-20T00:48:16;3.50;99.90
13610;DHT22;6876;50.788;4.940;2022-11-20T00:51:03;3.50;99.90
13610;DHT22;6876;50.788;4.940;2022-11-20T00:53:51;3.50;99.90
13610;DHT22;6876;50.788;4.940;2022-11-20T00:56:38;3.50;99.90
13610;DHT22;6876;50.788;4.940;2022-11-20T00:59:27;3.50;99.90
13610;DHT22;6876;50.788;4.940;2022-11-20T01:02:14;3.60;99.90
13610;DHT22;6876;50.788;4.940;2022-11-20T01:05:02;3.60;99.90
13610;DHT22;6876;50.788;4.940;2022-11-20T01:07:49;3.60;99.90
13610;DHT22;6876;50.788;4.940;2022-11-20T01:10:36;3.60;99.90
13610;DHT22;6876;50.788;4.940;2022-11-20T01:13:23;3.60;99.90
13610;DHT22;6876;50.788;4.940;2022-11-20T01:16:29;3.60;99.90
13610;DHT22;6876;50.788;4.940;2022-11-20T01:19:18;3.50;99.90
13610;DHT22;6876;50.788;4.940;2022-11-20T01:22:06;3.50;99.90
13610;DHT22;6876;50.788;4.940;2022-11-20T01:24:53;3.50;99.90
13610;DHT22;6876;50.788;4.940;2022-11-20T01:27:40;3.50;99.90
13610;DHT22;6876;50.788;4.940;2022-11-20T01:30:28;3.50;99.90
13610;DHT22;6876;50.788;4.940;2022-11-20T01:33:16;3.50;99.90
13610;DHT22;6876;50.788;4.940;2022-11-20T01:36:05;3.50;99.90
13610;DHT22;6876;50.788;4.940;2022-11-20T01:38:53;3.50;99.90
13610;DHT22;6876;50.788;4.940;2022-11-20T01:41:41;3.50;99.90
13610;DHT22;6876;50.788;4.940;2022-11-20T01:44:54;3.50;99.90
13610;DHT22;6876;50.788;4.940;2022-11-20T01:47:44;3.50;99.90
13610;DHT22;6876;50.788;4.940;2022-11-20T01:50:34;3.50;99.90
13610;DHT22;6876;50.788;4.940;2022-11-20T01:53:25;3.50;99.90
13610;DHT22;6876;50.788;4.940;2022-11-20T01:56:15;3.60;99.90
13610;DHT22;6876;50.788;4.940;2022-11-20T01:59:04;3.60;99.90
13610;DHT22;6876;50.788;4.940;2022-11-20T02:01:52;3.60;99.90
13610;DHT22;6876;50.788;4.940;2022-11-20T02:04:40;3.50;99.90
13610;DHT22;6876;50.788;4.940;2022-11-20T02:07:28;3.60;99.90
13610;DHT22;6876;50.788;4.940;2022-11-20T02:10:16;3.60;99.90
13610;DHT22;6876;50.788;4.940;2022-11-20T02:13:04;3.60;99.90
13610;DHT22;6876;50.788;4.940;2022-11-20T02:16:11;3.60;99.90
13610;DHT22;6876;50.788;4.940;2022-11-20T02:19:01;3.60;99.90
13610;DHT22;6876;50.788;4.940;2022-11-20T02:21:56;3.50;99.90
13610;DHT22;6876;50.788;4.940;2022-11-20T02:24:47;3.60;99.90
13610;DHT22;6876;50.788;4.940;2022-11-20T02:27:36;3.60;99.90
13610;DHT22;6876;50.788;4.940;2022-11-20T02:30:23;3.60;99.90
13610;DHT22;6876;50.788;4.940;2022-11-20T02:33:10;3.60;99.90
13610;DHT22;6876;50.788;4.940;2022-11-20T02:35:58;3.70;99.90
13610;DHT22;6876;50.788;4.940;2022-11-20T02:38:45;3.60;99.90
13610;DHT22;6876;50.788;4.940;2022-11-20T02:41:35;3.60;99.90
13610;DHT22;6876;50.788;4.940;2022-11-20T02:44:23;3.50;99.90
13610;DHT22;6876;50.788;4.940;2022-11-20T02:47:10;3.50;99.90
13610;DHT22;6876;50.788;4.940;2022-11-20T02:49:57;3.60;99.90
13610;DHT22;6876;50.788;4.940;2022-11-20T02:52:44;3.60;99.90
13610;DHT22;6876;50.788;4.940;2022-11-20T02:55:32;3.60;99.90
13610;DHT22;6876;50.788;4.940;2022-11-20T02:58:21;3.60;99.90
13610;DHT22;6876;50.788;4.940;2022-11-20T03:01:08;3.60;99.90
13610;DHT22;6876;50.788;4.940;2022-11-20T03:03:55;3.60;99.90
13610;DHT22;6876;50.788;4.940;2022-11-20T03:06:42;3.70;99.90
13610;DHT22;6876;50.788;4.940;2022-11-20T03:09:30;3.70;99.90
13610;DHT22;6876;50.788;4.940;2022-11-20T03:12:17;3.60;99.90
13610;DHT22;6876;50.788;4.940;2022-11-20T03:15:06;3.70;99.90
13610;DHT22;6876;50.788;4.940;2022-11-20T03:17:54;3.70;99.90
13610;DHT22;6876;50.788;4.940;2022-11-20T03:20:41;3.70;99.90
13610;DHT22;6876;50.788;4.940;2022-11-20T03:23:30;3.70;99.90
13610;DHT22;6876;50.788;4.940;2022-11-20T03:26:19;3.70;99.90
13610;DHT22;6876;50.788;4.940;2022-11-20T03:29:07;3.70;99.90
13610;DHT22;6876;50.788;4.940;2022-11-20T03:31:55;3.60;99.90
13610;DHT22;6876;50.788;4.940;2022-11-20T03:34:42;3.60;99.90
13610;DHT22;6876;50.788;4.940;2022-11-20T03:37:30;3.70;99.90
13610;DHT22;6876;50.788;4.940;2022-11-20T03:40:17;3.70;99.90
13610;DHT22;6876;50.788;4.940;2022-11-20T03:43:04;3.70;99.90
13610;DHT22;6876;50.788;4.940;2022-11-20T03:45:51;3.80;99.90
13610;DHT22;6876;50.788;4.940;2022-11-20T03:48:40;3.70;99.90
13610;DHT22;6876;50.788;4.940;2022-11-20T03:51:28;3.80;99.90
13610;DHT22;6876;50.788;4.940;2022-11-20T03:54:15;3.90;99.90
13610;DHT22;6876;50.788;4.940;2022-11-20T03:57:02;3.90;99.90
13610;DHT22;6876;50.788;4.940;2022-11-20T03:59:50;3.90;99.90
13610;DHT22;6876;50.788;4.940;2022-11-20T04:02:37;3.90;99.90
13610;DHT22;6876;50.788;4.940;2022-11-20T04:05:25;3.90;99.90
13610;DHT22;6876;50.788;4.940;2022-11-20T04:08:13;3.90;99.90
13610;DHT22;6876;50.788;4.940;2022-11-20T04:11:11;3.90;99.90
13610;DHT22;6876;50.788;4.940;2022-11-20T04:14:00;3.90;99.90
13610;DHT22;6876;50.788;4.940;2022-11-20T04:16:47;3.90;99.90
13610;DHT22;6876;50.788;4.940;2022-11-20T04:19:34;3.90;99.90
13610;DHT22;6876;50.788;4.940;2022-11-20T04:22:23;4.00;99.90
13610;DHT22;6876;50.788;4.940;2022-11-20T04:25:11;4.00;99.90
13610;DHT22;6876;50.788;4.940;2022-11-20T04:27:58;4.00;99.90
13610;DHT22;6876;50.788;4.940;2022-11-20T04:30:45;4.00;99.90
13610;DHT22;6876;50.788;4.940;2022-11-20T04:33:33;4.00;99.90
13610;DHT22;6876;50.788;4.940;2022-11-20T04:36:22;4.10;99.90
13610;DHT22;6876;50.788;4.940;2022-11-20T04:39:13;4.10;99.90
13610;DHT22;6876;50.788;4.940;2022-11-20T04:42:01;4.00;99.90
13610;DHT22;6876;50.788;4.940;2022-11-20T04:45:06;4.00;99.90
13610;DHT22;6876;50.788;4.940;2022-11-20T04:47:53;4.00;99.90
13610;DHT22;6876;50.788;4.940;2022-11-20T04:50:41;4.00;99.90
13610;DHT22;6876;50.788;4.940;2022-11-20T04:53:28;4.00;99.90
13610;DHT22;6876;50.788;4.940;2022-11-20T04:56:17;3.90;99.90
13610;DHT22;6876;50.788;4.940;2022-11-20T04:59:04;3.90;99.90
13610;DHT22;6876;50.788;4.940;2022-11-20T05:01:51;3.80;99.90
13610;DHT22;6876;50.788;4.940;2022-11-20T05:04:38;3.90;99.90
13610;DHT22;6876;50.788;4.940;2022-11-20T05:07:25;3.80;99.90
13610;DHT22;6876;50.788;4.940;2022-11-20T05:10:13;3.80;99.90
13610;DHT22;6876;50.788;4.940;2022-11-20T05:13:01;3.80;99.90
13610;DHT22;6876;50.788;4.940;2022-11-20T05:15:48;3.90;99.90
13610;DHT22;6876;50.788;4.940;2022-11-20T05:18:36;3.80;99.90
13610;DHT22;6876;50.788;4.940;2022-11-20T05:21:23;3.80;99.90
13610;DHT22;6876;50.788;4.940;2022-11-20T05:24:11;3.80;99.90
13610;DHT22;6876;50.788;4.940;2022-11-20T05:26:58;3.80;99.90
13610;DHT22;6876;50.788;4.940;2022-11-20T05:29:46;3.80;99.90
13610;DHT22;6876;50.788;4.940;2022-11-20T05:32:34;3.70;99.90
13610;DHT22;6876;50.788;4.940;2022-11-20T05:35:21;3.80;99.90
13610;DHT22;6876;50.788;4.940;2022-11-20T05:38:08;3.80;99.90
13610;DHT22;6876;50.788;4.940;2022-11-20T05:41:02;3.80;99.90
13610;DHT22;6876;50.788;4.940;2022-11-20T05:43:49;3.90;99.90
13610;DHT22;6876;50.788;4.940;2022-11-20T05:46:38;3.90;99.90
13610;DHT22;6876;50.788;4.940;2022-11-20T05:49:25;3.90;99.90
13610;DHT22;6876;50.788;4.940;2022-11-20T05:52:12;3.90;99.90
13610;DHT22;6876;50.788;4.940;2022-11-20T05:54:59;4.00;99.90
13610;DHT22;6876;50.788;4.940;2022-11-20T05:57:47;4.00;99.90
13610;DHT22;6876;50.788;4.940;2022-11-20T06:00:34;4.00;99.90
13610;DHT22;6876;50.788;4.940;2022-11-20T06:03:23;4.00;99.90
13610;DHT22;6876;50.788;4.940;2022-11-20T06:06:10;4.00;99.90
13610;DHT22;6876;50.788;4.940;2022-11-20T06:08:57;4.00;99.90
13610;DHT22;6876;50.788;4.940;2022-11-20T06:11:45;4.00;99.90
13610;DHT22;6876;50.788;4.940;2022-11-20T06:14:32;4.00;99.90
13610;DHT22;6876;50.788;4.940;2022-11-20T06:17:20;4.00;99.90
13610;DHT22;6876;50.788;4.940;2022-11-20T06:20:09;4.10;99.90
13610;DHT22;6876;50.788;4.940;2022-11-20T06:22:57;4.10;99.90
13610;DHT22;6876;50.788;4.940;2022-11-20T06:25:44;4.10;99.90
13610;DHT22;6876;50.788;4.940;2022-11-20T06:28:31;4.20;99.90
13610;DHT22;6876;50.788;4.940;2022-11-20T06:31:20;4.10;99.90
13610;DHT22;6876;50.788;4.940;2022-11-20T06:34:08;4.20;99.90
13610;DHT22;6876;50.788;4.940;2022-11-20T06:36:57;4.20;99.90
13610;DHT22;6876;50.788;4.940;2022-11-20T06:39:44;4.20;99.90
13610;DHT22;6876;50.788;4.940;2022-11-20T06:42:32;4.20;99.90
13610;DHT22;6876;50.788;4.940;2022-11-20T06:45:19;4.20;99.90
13610;DHT22;6876;50.788;4.940;2022-11-20T06:48:06;4.20;99.90
13610;DHT22;6876;50.788;4.940;2022-11-20T06:50:53;4.20;99.90
13610;DHT22;6876;50.788;4.940;2022-11-20T06:53:42;4.20;99.90
13610;DHT22;6876;50.788;4.940;2022-11-20T06:56:29;4.20;99.90
13610;DHT22;6876;50.788;4.940;2022-11-20T06:59:17;4.30;99.90
13610;DHT22;6876;50.788;4.940;2022-11-20T07:02:04;4.20;99.90
13610;DHT22;6876;50.788;4.940;2022-11-20T07:04:51;4.20;99.90
13610;DHT22;6876;50.788;4.940;2022-11-20T07:07:38;4.20;99.90
13610;DHT22;6876;50.788;4.940;2022-11-20T07:10:27;4.30;99.90
13610;DHT22;6876;50.788;4.940;2022-11-20T07:13:14;4.30;99.90
13610;DHT22;6876;50.788;4.940;2022-11-20T07:16:03;4.30;99.90
13610;DHT22;6876;50.788;4.940;2022-11-20T07:18:51;4.30;99.90
13610;DHT22;6876;50.788;4.940;2022-11-20T07:21:38;4.30;99.90
13610;DHT22;6876;50.788;4.940;2022-11-20T07:24:25;4.40;99.90
13610;DHT22;6876;50.788;4.940;2022-11-20T07:27:14;4.40;99.90
13610;DHT22;6876;50.788;4.940;2022-11-20T07:30:02;4.40;99.90
13610;DHT22;6876;50.788;4.940;2022-11-20T07:32:51;4.40;99.90
13610;DHT22;6876;50.788;4.940;2022-11-20T07:35:38;4.50;99.90
13610;DHT22;6876;50.788;4.940;2022-11-20T07:38:26;4.50;99.90
13610;DHT22;6876;50.788;4.940;2022-11-20T07:41:13;4.60;99.90
13610;DHT22;6876;50.788;4.940;2022-11-20T07:44:01;4.60;99.90
13610;DHT22;6876;50.788;4.940;2022-11-20T07:46:49;4.70;99.90
13610;DHT22;6876;50.788;4.940;2022-11-20T07:49:36;4.70;99.90
13610;DHT22;6876;50.788;4.940;2022-11-20T07:52:23;4.70;99.90
13610;DHT22;6876;50.788;4.940;2022-11-20T07:55:10;4.80;99.90
13610;DHT22;6876;50.788;4.940;2022-11-20T07:57:58;4.80;99.90
13610;DHT22;6876;50.788;4.940;2022-11-20T08:00:47;4.80;99.90
13610;DHT22;6876;50.788;4.940;2022-11-20T08:03:35;4.90;99.90
13610;DHT22;6876;50.788;4.940;2022-11-20T08:06:24;4.90;99.90
13610;DHT22;6876;50.788;4.940;2022-11-20T08:09:11;5.00;99.90
13610;DHT22;6876;50.788;4.940;2022-11-20T08:11:58;5.00;99.90
13610;DHT22;6876;50.788;4.940;2022-11-20T08:15:04;5.00;99.90
13610;DHT22;6876;50.788;4.940;2022-11-20T08:17:59;5.10;99.90
13610;DHT22;6876;50.788;4.940;2022-11-20T08:20:46;5.10;99.90
13610;DHT22;6876;50.788;4.940;2022-11-20T08:23:33;5.20;99.90
13610;DHT22;6876;50.788;4.940;2022-11-20T08:26:21;5.30;99.90
13610;DHT22;6876;50.788;4.940;2022-11-20T08:29:08;5.30;99.90
13610;DHT22;6876;50.788;4.940;2022-11-20T08:31:55;5.40;99.90
13610;DHT22;6876;50.788;4.940;2022-11-20T08:34:44;5.40;99.90
13610;DHT22;6876;50.788;4.940;2022-11-20T08:37:32;5.40;99.90
13610;DHT22;6876;50.788;4.940;2022-11-20T08:40:19;5.40;99.90
13610;DHT22;6876;50.788;4.940;2022-11-20T08:43:06;5.40;99.90
13610;DHT22;6876;50.788;4.940;2022-11-20T08:45:56;5.50;99.90
13610;DHT22;6876;50.788;4.940;2022-11-20T08:48:43;5.40;99.90
13610;DHT22;6876;50.788;4.940;2022-11-20T08:51:32;5.50;99.90
13610;DHT22;6876;50.788;4.940;2022-11-20T08:54:20;5.60;99.90
13610;DHT22;6876;50.788;4.940;2022-11-20T08:57:08;5.70;99.90
13610;DHT22;6876;50.788;4.940;2022-11-20T08:59:55;5.80;99.90
13610;DHT22;6876;50.788;4.940;2022-11-20T09:02:42;5.80;99.90
13610;DHT22;6876;50.788;4.940;2022-11-20T09:05:29;5.80;99.90
13610;DHT22;6876;50.788;4.940;2022-11-20T09:08:18;5.90;99.90
13610;DHT22;6876;50.788;4.940;2022-11-20T09:11:06;5.90;99.90
13610;DHT22;6876;50.788;4.940;2022-11-20T09:13:53;6.00;99.90
13610;DHT22;6876;50.788;4.940;2022-11-20T09:16:40;6.00;99.90
13610;DHT22;6876;50.788;4.940;2022-11-20T09:19:27;6.10;99.90
13610;DHT22;6876;50.788;4.940;2022-11-20T09:22:14;6.20;99.90
13610;DHT22;6876;50.788;4.940;2022-11-20T09:25:04;6.30;99.90
13610;DHT22;6876;50.788;4.940;2022-11-20T09:27:55;6.30;99.90
13610;DHT22;6876;50.788;4.940;2022-11-20T09:30:42;6.30;99.90
13610;DHT22;6876;50.788;4.940;2022-11-20T09:33:29;6.40;99.90
13610;DHT22;6876;50.788;4.940;2022-11-20T09:36:16;6.40;99.90
13610;DHT22;6876;50.788;4.940;2022-11-20T09:39:04;6.40;99.90
13610;DHT22;6876;50.788;4.940;2022-11-20T09:42:05;6.50;99.90
13610;DHT22;6876;50.788;4.940;2022-11-20T09:45:16;6.60;99.90
13610;DHT22;6876;50.788;4.940;2022-11-20T09:51:41;6.80;99.90
13610;DHT22;6876;50.788;4.940;2022-11-20T09:54:34;6.90;99.90
13610;DHT22;6876;50.788;4.940;2022-11-20T09:57:28;7.10;99.90
13610;DHT22;6876;50.788;4.940;2022-11-20T10:00:19;7.20;99.90
13610;DHT22;6876;50.788;4.940;2022-11-20T10:03:13;7.30;99.90
13610;DHT22;6876;50.788;4.940;2022-11-20T10:06:02;7.40;99.90
13610;DHT22;6876;50.788;4.940;2022-11-20T10:08:55;7.50;99.90
13610;DHT22;6876;50.788;4.940;2022-11-20T10:11:51;7.60;99.90
13610;DHT22;6876;50.788;4.940;2022-11-20T10:14:51;7.70;99.90
13610;DHT22;6876;50.788;4.940;2022-11-20T10:18:17;7.80;99.90
13610;DHT22;6876;50.788;4.940;2022-11-20T10:21:11;7.80;99.90
13610;DHT22;6876;50.788;4.940;2022-11-20T10:24:24;7.80;99.90
13610;DHT22;6876;50.788;4.940;2022-11-20T10:30:35;7.80;99.90
13610;DHT22;6876;50.788;4.940;2022-11-20T10:33:25;7.90;99.90
13610;DHT22;6876;50.788;4.940;2022-11-20T10:36:18;8.00;99.90
13610;DHT22;6876;50.788;4.940;2022-11-20T10:39:14;8.00;99.90
13610;DHT22;6876;50.788;4.940;2022-11-20T10:42:08;8.00;99.90
13610;DHT22;6876;50.788;4.940;2022-11-20T10:45:02;8.00;99.90
13610;DHT22;6876;50.788;4.940;2022-11-20T10:48:09;8.00;99.90
13610;DHT22;6876;50.788;4.940;2022-11-20T10:51:07;8.10;99.90
13610;DHT22;6876;50.788;4.940;2022-11-20T10:54:03;8.20;99.90
13610;DHT22;6876;50.788;4.940;2022-11-20T10:56:55;8.30;99.90
13610;DHT22;6876;50.788;4.940;2022-11-20T10:59:59;8.40;99.90
13610;DHT22;6876;50.788;4.940;2022-11-20T11:02:48;8.50;99.90
13610;DHT22;6876;50.788;4.940;2022-11-20T11:05:40;8.50;99.90
13610;DHT22;6876;50.788;4.940;2022-11-20T11:08:34;8.50;99.90
13610;DHT22;6876;50.788;4.940;2022-11-20T11:11:24;8.50;99.90
13610;DHT22;6876;50.788;4.940;2022-11-20T11:14:13;8.50;99.90
13610;DHT22;6876;50.788;4.940;2022-11-20T11:17:00;8.50;99.90
13610;DHT22;6876;50.788;4.940;2022-11-20T11:19:58;8.60;99.90
13610;DHT22;6876;50.788;4.940;2022-11-20T11:22:48;8.60;99.90
13610;DHT22;6876;50.788;4.940;2022-11-20T11:25:36;8.70;99.90
13610;DHT22;6876;50.788;4.940;2022-11-20T11:28:25;8.80;99.90
13610;DHT22;6876;50.788;4.940;2022-11-20T11:31:22;8.90;99.90
13610;DHT22;6876;50.788;4.940;2022-11-20T11:34:12;8.90;99.90
13610;DHT22;6876;50.788;4.940;2022-11-20T11:37:02;9.10;99.90
13610;DHT22;6876;50.788;4.940;2022-11-20T11:39:51;9.20;99.90
13610;DHT22;6876;50.788;4.940;2022-11-20T11:42:41;9.20;99.90
13610;DHT22;6876;50.788;4.940;2022-11-20T11:45:29;9.20;99.90
13610;DHT22;6876;50.788;4.940;2022-11-20T11:48:15;9.30;99.90
13610;DHT22;6876;50.788;4.940;2022-11-20T11:51:08;9.30;99.90
13610;DHT22;6876;50.788;4.940;2022-11-20T11:53:56;9.30;99.90
13610;DHT22;6876;50.788;4.940;2022-11-20T11:56:46;9.30;99.90
13610;DHT22;6876;50.788;4.940;2022-11-20T11:59:45;9.30;99.90
13610;DHT22;6876;50.788;4.940;2022-11-20T12:02:37;9.20;99.90
13610;DHT22;6876;50.788;4.940;2022-11-20T12:05:28;9.20;99.90
13610;DHT22;6876;50.788;4.940;2022-11-20T12:08:21;9.10;99.90
13610;DHT22;6876;50.788;4.940;2022-11-20T12:11:13;9.10;99.90
13610;DHT22;6876;50.788;4.940;2022-11-20T12:14:11;9.10;99.90
13610;DHT22;6876;50.788;4.940;2022-11-20T12:17:00;9.10;99.90
13610;DHT22;6876;50.788;4.940;2022-11-20T12:19:48;9.10;99.90
13610;DHT22;6876;50.788;4.940;2022-11-20T12:22:47;9.00;99.90
13610;DHT22;6876;50.788;4.940;2022-11-20T12:25:38;9.00;99.90
13610;DHT22;6876;50.788;4.940;2022-11-20T12:28:44;8.90;99.90
13610;DHT22;6876;50.788;4.940;2022-11-20T12:31:57;8.80;99.90
13610;DHT22;6876;50.788;4.940;2022-11-20T12:34:56;8.80;99.90
13610;DHT22;6876;50.788;4.940;2022-11-20T12:37:52;8.70;99.90
13610;DHT22;6876;50.788;4.940;2022-11-20T12:40:48;8.70;99.90
13610;DHT22;6876;50.788;4.940;2022-11-20T12:43:45;8.60;99.90
13610;DHT22;6876;50.788;4.940;2022-11-20T12:47:02;8.50;99.90
13610;DHT22;6876;50.788;4.940;2022-11-20T12:50:00;8.40;99.90
13610;DHT22;6876;50.788;4.940;2022-11-20T12:52:52;8.30;99.90
13610;DHT22;6876;50.788;4.940;2022-11-20T12:55:47;8.30;99.90
13610;DHT22;6876;50.788;4.940;2022-11-20T12:58:41;8.30;99.90
13610;DHT22;6876;50.788;4.940;2022-11-20T13:01:37;8.20;99.90
13610;DHT22;6876;50.788;4.940;2022-11-20T13:04:44;8.20;99.90
13610;DHT22;6876;50.788;4.940;2022-11-20T13:07:35;8.20;99.90
13610;DHT22;6876;50.788;4.940;2022-11-20T13:10:29;8.20;99.90
13610;DHT22;6876;50.788;4.940;2022-11-20T13:13:23;8.20;99.90
13610;DHT22;6876;50.788;4.940;2022-11-20T13:16:16;8.30;99.90
13610;DHT22;6876;50.788;4.940;2022-11-20T13:19:04;8.30;99.90
13610;DHT22;6876;50.788;4.940;2022-11-20T13:21:53;8.20;99.90
13610;DHT22;6876;50.788;4.940;2022-11-20T13:24:50;8.10;99.90
13610;DHT22;6876;50.788;4.940;2022-11-20T13:27:47;8.10;99.90
13610;DHT22;6876;50.788;4.940;2022-11-20T13:30:35;8.10;99.90
13610;DHT22;6876;50.788;4.940;2022-11-20T13:33:27;8.20;99.90
13610;DHT22;6876;50.788;4.940;2022-11-20T13:36:22;8.20;99.90
13610;DHT22;6876;50.788;4.940;2022-11-20T13:39:10;8.20;99.90
13610;DHT22;6876;50.788;4.940;2022-11-20T13:41:59;8.30;99.90
13610;DHT22;6876;50.788;4.940;2022-11-20T13:44:48;8.30;99.90
13610;DHT22;6876;50.788;4.940;2022-11-20T13:47:37;8.20;99.90
13610;DHT22;6876;50.788;4.940;2022-11-20T13:50:46;8.20;99.90
13610;DHT22;6876;50.788;4.940;2022-11-20T13:53:57;8.10;99.90
13610;DHT22;6876;50.788;4.940;2022-11-20T13:56:58;8.20;99.90
13610;DHT22;6876;50.788;4.940;2022-11-20T13:59:56;8.10;99.90
13610;DHT22;6876;50.788;4.940;2022-11-20T14:02:49;8.00;99.90
13610;DHT22;6876;50.788;4.940;2022-11-20T14:05:46;8.00;99.90
13610;DHT22;6876;50.788;4.940;2022-11-20T14:08:40;7.90;99.90
13610;DHT22;6876;50.788;4.940;2022-11-20T14:11:30;7.90;99.90
13610;DHT22;6876;50.788;4.940;2022-11-20T14:14:20;7.90;99.90
13610;DHT22;6876;50.788;4.940;2022-11-20T14:17:09;7.90;99.90
13610;DHT22;6876;50.788;4.940;2022-11-20T14:20:06;7.80;99.90
13610;DHT22;6876;50.788;4.940;2022-11-20T14:22:58;7.80;99.90
13610;DHT22;6876;50.788;4.940;2022-11-20T14:25:45;7.90;99.90
13610;DHT22;6876;50.788;4.940;2022-11-20T14:28:32;7.90;99.90
13610;DHT22;6876;50.788;4.940;2022-11-20T14:31:25;7.90;99.90
13610;DHT22;6876;50.788;4.940;2022-11-20T14:34:15;7.90;99.90
13610;DHT22;6876;50.788;4.940;2022-11-20T14:37:06;7.90;99.90
13610;DHT22;6876;50.788;4.940;2022-11-20T14:39:57;8.00;99.90
13610;DHT22;6876;50.788;4.940;2022-11-20T14:42:44;8.00;99.90
13610;DHT22;6876;50.788;4.940;2022-11-20T14:45:32;8.00;99.90
13610;DHT22;6876;50.788;4.940;2022-11-20T14:48:23;8.00;99.90
13610;DHT22;6876;50.788;4.940;2022-11-20T14:51:30;8.10;99.90
13610;DHT22;6876;50.788;4.940;2022-11-20T14:54:19;8.10;99.90
13610;DHT22;6876;50.788;4.940;2022-11-20T14:57:21;8.00;99.90
13610;DHT22;6876;50.788;4.940;2022-11-20T15:00:19;8.00;99.90
13610;DHT22;6876;50.788;4.940;2022-11-20T15:03:15;8.00;99.90
13610;DHT22;6876;50.788;4.940;2022-11-20T15:06:04;8.10;99.90
13610;DHT22;6876;50.788;4.940;2022-11-20T15:08:52;8.10;99.90
13610;DHT22;6876;50.788;4.940;2022-11-20T15:11:52;8.10;99.90
13610;DHT22;6876;50.788;4.940;2022-11-20T15:14:40;8.10;99.90
13610;DHT22;6876;50.788;4.940;2022-11-20T15:17:27;8.20;99.90
13610;DHT22;6876;50.788;4.940;2022-11-20T15:20:15;8.30;99.90
13610;DHT22;6876;50.788;4.940;2022-11-20T15:23:09;8.40;99.90
13610;DHT22;6876;50.788;4.940;2022-11-20T15:25:57;8.40;99.90
13610;DHT22;6876;50.788;4.940;2022-11-20T15:28:46;8.40;99.90
13610;DHT22;6876;50.788;4.940;2022-11-20T15:31:35;8.40;99.90
13610;DHT22;6876;50.788;4.940;2022-11-20T15:34:23;8.40;99.90
13610;DHT22;6876;50.788;4.940;2022-11-20T15:37:10;8.40;99.90
13610;DHT22;6876;50.788;4.940;2022-11-20T15:39:59;8.40;99.90
13610;DHT22;6876;50.788;4.940;2022-11-20T15:42:46;8.40;99.90
13610;DHT22;6876;50.788;4.940;2022-11-20T15:45:49;8.50;99.90
13610;DHT22;6876;50.788;4.940;2022-11-20T15:48:40;8.50;99.90
13610;DHT22;6876;50.788;4.940;2022-11-20T15:51:29;8.50;99.90
13610;DHT22;6876;50.788;4.940;2022-11-20T15:54:19;8.50;99.90
13610;DHT22;6876;50.788;4.940;2022-11-20T15:57:08;8.60;99.90
13610;DHT22;6876;50.788;4.940;2022-11-20T15:59:55;8.60;99.90
13610;DHT22;6876;50.788;4.940;2022-11-20T16:02:43;8.60;99.90
13610;DHT22;6876;50.788;4.940;2022-11-20T16:05:30;8.60;99.90
13610;DHT22;6876;50.788;4.940;2022-11-20T16:08:17;8.60;99.90
13610;DHT22;6876;50.788;4.940;2022-11-20T16:11:05;8.60;99.90
13610;DHT22;6876;50.788;4.940;2022-11-20T16:13:53;8.60;99.90
13610;DHT22;6876;50.788;4.940;2022-11-20T16:16:58;8.60;99.90
13610;DHT22;6876;50.788;4.940;2022-11-20T16:19:45;8.70;99.90
13610;DHT22;6876;50.788;4.940;2022-11-20T16:22:32;8.70;99.90
13610;DHT22;6876;50.788;4.940;2022-11-20T16:25:19;8.70;99.90
13610;DHT22;6876;50.788;4.940;2022-11-20T16:28:07;8.70;99.90
13610;DHT22;6876;50.788;4.940;2022-11-20T16:30:56;8.60;99.90
13610;DHT22;6876;50.788;4.940;2022-11-20T16:33:48;8.60;99.90
13610;DHT22;6876;50.788;4.940;2022-11-20T16:36:35;8.60;99.90
13610;DHT22;6876;50.788;4.940;2022-11-20T16:39:24;8.60;99.90
13610;DHT22;6876;50.788;4.940;2022-11-20T16:42:12;8.60;99.90
13610;DHT22;6876;50.788;4.940;2022-11-20T16:44:59;8.60;99.90
13610;DHT22;6876;50.788;4.940;2022-11-20T16:47:47;8.50;99.90
13610;DHT22;6876;50.788;4.940;2022-11-20T16:50:35;8.50;99.90
13610;DHT22;6876;50.788;4.940;2022-11-20T16:53:22;8.50;99.90
13610;DHT22;6876;50.788;4.940;2022-11-20T16:56:11;8.40;99.90
13610;DHT22;6876;50.788;4.940;2022-11-20T16:59:01;8.50;99.90
13610;DHT22;6876;50.788;4.940;2022-11-20T17:01:48;8.50;99.90
13610;DHT22;6876;50.788;4.940;2022-11-20T17:04:37;8.40;99.90
13610;DHT22;6876;50.788;4.940;2022-11-20T17:07:24;8.40;99.90
13610;DHT22;6876;50.788;4.940;2022-11-20T17:10:12;8.40;99.90
13610;DHT22;6876;50.788;4.940;2022-11-20T17:12:59;8.50;99.90
13610;DHT22;6876;50.788;4.940;2022-11-20T17:15:46;8.50;99.90
13610;DHT22;6876;50.788;4.940;2022-11-20T17:18:33;8.50;99.90
13610;DHT22;6876;50.788;4.940;2022-11-20T17:21:22;8.60;99.90
13610;DHT22;6876;50.788;4.940;2022-11-20T17:24:10;8.50;99.90
13610;DHT22;6876;50.788;4.940;2022-11-20T17:26:58;8.40;99.90
13610;DHT22;6876;50.788;4.940;2022-11-20T17:29:45;8.40;99.90
13610;DHT22;6876;50.788;4.940;2022-11-20T17:32:33;8.40;99.90
13610;DHT22;6876;50.788;4.940;2022-11-20T17:35:20;8.30;99.90
13610;DHT22;6876;50.788;4.940;2022-11-20T17:38:08;8.30;99.90
13610;DHT22;6876;50.788;4.940;2022-11-20T17:41:01;8.30;99.90
13610;DHT22;6876;50.788;4.940;2022-11-20T17:43:52;8.30;99.90
13610;DHT22;6876;50.788;4.940;2022-11-20T17:46:39;8.40;99.90
13610;DHT22;6876;50.788;4.940;2022-11-20T17:49:27;8.40;99.90
13610;DHT22;6876;50.788;4.940;2022-11-20T17:52:14;8.20;99.90
13610;DHT22;6876;50.788;4.940;2022-11-20T17:55:04;8.20;99.90
13610;DHT22;6876;50.788;4.940;2022-11-20T17:57:51;8.20;99.90
13610;DHT22;6876;50.788;4.940;2022-11-20T18:00:37;8.10;99.90
13610;DHT22;6876;50.788;4.940;2022-11-20T18:03:25;8.00;99.90
13610;DHT22;6876;50.788;4.940;2022-11-20T18:06:14;7.70;99.90
13610;DHT22;6876;50.788;4.940;2022-11-20T18:09:03;7.50;99.90
13610;DHT22;6876;50.788;4.940;2022-11-20T18:11:52;7.40;99.90
13610;DHT22;6876;50.788;4.940;2022-11-20T18:14:39;7.40;99.90
13610;DHT22;6876;50.788;4.940;2022-11-20T18:17:28;7.40;99.90
13610;DHT22;6876;50.788;4.940;2022-11-20T18:20:15;7.40;99.90
13610;DHT22;6876;50.788;4.940;2022-11-20T18:23:03;7.40;99.90
13610;DHT22;6876;50.788;4.940;2022-11-20T18:25:50;7.30;99.90
13610;DHT22;6876;50.788;4.940;2022-11-20T18:28:39;7.20;99.90
13610;DHT22;6876;50.788;4.940;2022-11-20T18:31:26;7.20;99.90
13610;DHT22;6876;50.788;4.940;2022-11-20T18:34:14;7.20;99.90
13610;DHT22;6876;50.788;4.940;2022-11-20T18:37:01;7.20;99.90